Brownsville, Indiana
Current Conditions -  °F | °C
As of 6:15 AM on Sunday 23 Nov 2014 (Local Time) from KI67 Reporting Station
Broken Clouds Broken Clouds  
Wind Chill: 50°   Ceiling: 3000
Heat Index: 50°   Visibility: 10mi
Dew Point: 37°   Wind: 5mph
Humidity: 62%   Direction: 140°SE
Pressure: 29.96"   Gusts: NA
Location:  39.66°N, 85°W
Report Text: KI67 231115Z AUTO 14004KT 10SM BKN030 BKN038 BKN075 10/03 A2996 RMK AO1
Loading
Personal Weather Stations






























Interactive Weather Map New forecast layout! Learn more

10-Day Weather Forecast

Advertisements
Track Severe Weather on mobile